Time;durP1;ratioP1;P1;durP2;ratioP2;P2;SDS_P1;SDS_P2;PMS_P1;PMS_P2;Temp;Humidity;BMP_temperature;BMP_pressure;BME280_temperature;BME280_humidity;BME280_pressure;Samples;Min_cycle;Max_cycle;Signal;HPM_P1;HPM_P2
2023/08/23 00:01:35;;;;;;;9.32;8.25;;;;;;;26.44;64.51;98324.84;5049392;28;20177;-58
2023/08/23 00:04:01;;;;;;;9.55;8.50;;;;;;;26.45;66.35;98326.47;5049247;28;20185;-58
2023/08/23 00:06:26;;;;;;;9.43;8.40;;;;;;;26.38;67.44;98311.56;5049363;28;20702;-59
2023/08/23 00:08:51;;;;;;;9.13;8.35;;;;;;;26.30;67.63;98325.06;5036230;28;20225;-58
2023/08/23 00:11:17;;;;;;;11.40;8.40;;;;;;;26.19;68.74;98294.66;5031711;28;20272;-58
2023/08/23 00:13:42;;;;;;;10.23;8.38;;;;;;;26.33;67.50;98338.75;5031745;28;20261;-58
2023/08/23 00:16:08;;;;;;;9.75;8.65;;;;;;;26.24;67.99;98324.03;5031588;28;20170;-58
2023/08/23 00:18:33;;;;;;;13.50;8.57;;;;;;;26.11;67.37;98308.13;5031571;28;20255;-58
2023/08/23 00:20:59;;;;;;;9.18;8.23;;;;;;;26.15;67.11;98314.69;5031570;28;20173;-58
2023/08/23 00:23:24;;;;;;;10.27;8.27;;;;;;;26.00;68.42;98316.72;5031562;28;20178;-58
2023/08/23 00:25:49;;;;;;;10.32;8.23;;;;;;;26.21;69.20;98339.56;5031491;28;20523;-58
2023/08/23 00:28:19;;;;;;;10.05;9.05;;;;;;;26.00;68.57;98339.78;5031466;28;20178;-58
2023/08/23 00:30:54;;;;;;;11.15;8.50;;;;;;;25.93;68.75;98331.81;5031380;28;20170;-58
2023/08/23 00:33:20;;;;;;;8.88;8.05;;;;;;;26.12;68.67;98357.50;5031293;28;20188;-58
2023/08/23 00:35:46;;;;;;;9.02;8.18;;;;;;;25.95;68.82;98323.66;5031271;28;20223;-58
2023/08/23 00:38:12;;;;;;;9.65;8.85;;;;;;;25.88;70.35;98318.31;5031221;28;20193;-58
2023/08/23 00:40:38;;;;;;;10.45;8.75;;;;;;;26.12;70.08;98354.84;5030885;28;20216;-58
2023/08/23 00:43:06;;;;;;;9.45;8.50;;;;;;;25.92;68.86;98327.53;5031155;28;20628;-58
2023/08/23 00:45:36;;;;;;;9.45;8.05;;;;;;;25.93;69.43;98326.50;5031059;28;20351;-58
2023/08/23 00:48:03;;;;;;;9.93;8.85;;;;;;;25.86;68.36;98348.69;5031375;28;20203;-58
2023/08/23 00:50:32;;;;;;;8.90;8.00;;;;;;;25.91;70.50;98349.78;5030990;28;20257;-58
2023/08/23 00:52:58;;;;;;;11.10;8.88;;;;;;;25.81;70.35;98343.19;5031082;28;20186;-58
2023/08/23 00:55:24;;;;;;;11.88;8.50;;;;;;;25.74;71.36;98343.19;5031000;28;20261;-58
2023/08/23 00:57:51;;;;;;;12.60;8.85;;;;;;;25.72;71.58;98347.06;5030672;28;20373;-58
2023/08/23 01:00:17;;;;;;;9.50;8.65;;;;;;;25.56;71.35;98336.81;5030830;28;20538;-58
2023/08/23 01:02:43;;;;;;;9.73;8.73;;;;;;;25.33;70.37;98323.94;5030905;28;20186;-58
2023/08/23 01:05:09;;;;;;;9.43;8.48;;;;;;;25.43;70.97;98340.25;5031195;28;20651;-58
2023/08/23 01:07:49;;;;;;;9.45;8.57;;;;;;;25.38;71.26;98350.63;5030888;28;20563;-58
2023/08/23 01:10:30;;;;;;;9.65;8.60;;;;;;;25.24;71.53;98348.97;5030848;28;20178;-59
2023/08/23 01:13:08;;;;;;;10.98;9.00;;;;;;;25.47;72.28;98369.81;5030612;28;20644;-59
2023/08/23 01:15:35;;;;;;;12.18;9.02;;;;;;;25.37;72.57;98354.31;5030900;28;20173;-58
2023/08/23 01:18:02;;;;;;;10.13;9.05;;;;;;;25.52;73.26;98370.03;5030664;28;20178;-58
2023/08/23 01:20:28;;;;;;;10.73;9.68;;;;;;;25.46;72.12;98354.94;5030418;28;20591;-59
2023/08/23 01:23:02;;;;;;;9.50;8.73;;;;;;;25.36;72.36;98333.31;5030968;28;20269;-58
2023/08/23 01:25:27;;;;;;;11.43;8.80;;;;;;;25.48;70.87;98348.44;5030755;28;20212;-58
2023/08/23 01:27:53;;;;;;;11.95;8.40;;;;;;;25.49;71.67;98349.25;5030944;28;20181;-59
2023/08/23 01:30:19;;;;;;;12.18;9.98;;;;;;;25.17;70.86;98334.03;5030631;28;20606;-59
2023/08/23 01:32:58;;;;;;;9.48;8.63;;;;;;;25.19;71.51;98332.81;5027943;28;20228;-59
2023/08/23 01:35:45;;;;;;;12.57;9.20;;;;;;;25.38;72.20;98360.44;5028242;28;20598;-59
2023/08/23 01:38:11;;;;;;;9.45;8.55;;;;;;;25.43;72.69;98365.94;5028425;28;20192;-59
2023/08/23 01:40:38;;;;;;;10.20;8.70;;;;;;;25.47;72.39;98367.16;5028123;28;20189;-59
2023/08/23 01:43:03;;;;;;;9.38;8.45;;;;;;;25.27;72.05;98340.63;5028078;28;20618;-59
2023/08/23 01:45:29;;;;;;;9.82;8.82;;;;;;;25.31;71.60;98363.03;5028086;28;20177;-59
2023/08/23 01:47:54;;;;;;;10.35;9.38;;;;;;;25.36;71.71;98359.81;5028010;28;20204;-59
2023/08/23 01:50:20;;;;;;;10.05;9.05;;;;;;;25.18;71.67;98325.88;5028024;28;20201;-59
2023/08/23 01:52:45;;;;;;;12.45;8.90;;;;;;;25.37;72.29;98350.84;5028307;28;20656;-59
2023/08/23 01:55:10;;;;;;;9.52;8.65;;;;;;;25.02;74.17;98320.94;5051545;28;20721;-59
2023/08/23 01:57:36;;;;;;;13.70;8.57;;;;;;;25.27;73.16;98359.19;5051701;28;20196;-59
2023/08/23 02:00:03;;;;;;;9.88;8.95;;;;;;;25.22;73.36;98353.63;5051542;28;20718;-58
2023/08/23 02:02:28;;;;;;;10.32;9.20;;;;;;;25.01;73.01;98329.09;5051872;28;20181;-58
2023/08/23 02:04:53;;;;;;;11.30;9.07;;;;;;;25.06;72.75;98340.72;5051550;28;20181;-58
2023/08/23 02:07:19;;;;;;;9.48;8.68;;;;;;;24.95;72.46;98325.41;5051365;28;20228;-58
2023/08/23 02:09:44;;;;;;;9.75;8.82;;;;;;;24.81;73.23;98315.78;5051791;28;20595;-58
2023/08/23 02:12:10;;;;;;;10.68;8.93;;;;;;;25.00;72.95;98333.56;5051440;28;20269;-58
2023/08/23 02:14:35;;;;;;;10.07;9.07;;;;;;;25.03;73.05;98349.03;5051423;28;20185;-58
2023/08/23 02:17:02;;;;;;;9.70;8.73;;;;;;;24.96;72.67;98345.56;5051293;28;20223;-58
2023/08/23 02:19:27;;;;;;;10.00;9.10;;;;;;;25.00;73.33;98357.41;5051218;28;20201;-58
2023/08/23 02:21:52;;;;;;;10.18;9.27;;;;;;;25.08;73.48;98354.56;5051429;28;20592;-58
2023/08/23 02:24:18;;;;;;;11.00;8.60;;;;;;;24.90;72.13;98317.22;5051228;28;20211;-58
2023/08/23 02:26:43;;;;;;;10.02;8.60;;;;;;;25.01;72.57;98342.34;5038029;28;20190;-58
2023/08/23 02:29:08;;;;;;;14.82;9.45;;;;;;;24.98;72.64;98340.91;5033760;28;20652;-58
2023/08/23 02:31:34;;;;;;;9.35;8.50;;;;;;;24.78;72.08;98323.28;5033640;28;20189;-58
2023/08/23 02:33:59;;;;;;;10.90;9.30;;;;;;;25.07;72.29;98355.59;5030879;28;20567;-58
2023/08/23 02:36:25;;;;;;;10.07;9.07;;;;;;;25.05;72.94;98362.09;5030979;28;20186;-58
2023/08/23 02:38:50;;;;;;;10.38;9.13;;;;;;;24.95;72.99;98362.47;5030893;28;20226;-58
2023/08/23 02:41:16;;;;;;;9.90;8.93;;;;;;;24.88;73.20;98364.25;5031213;28;20585;-58
2023/08/23 02:43:42;;;;;;;9.75;8.95;;;;;;;24.72;73.11;98348.69;5031181;28;20272;-58
2023/08/23 02:46:07;;;;;;;12.93;8.85;;;;;;;24.61;72.92;98328.06;5030879;28;20182;-58
2023/08/23 02:48:33;;;;;;;10.07;8.95;;;;;;;24.60;74.09;98344.13;5030785;28;20243;-58
2023/08/23 02:50:59;;;;;;;10.02;9.13;;;;;;;24.74;73.46;98359.91;5030842;28;20303;-57
2023/08/23 02:53:25;;;;;;;10.05;9.15;;;;;;;24.77;73.27;98363.97;5030612;28;20189;-59
2023/08/23 02:55:50;;;;;;;13.48;9.43;;;;;;;24.72;72.08;98340.75;5030703;28;20257;-57
2023/08/23 02:58:16;;;;;;;10.75;9.60;;;;;;;24.69;72.57;98353.56;5030589;28;20261;-57
2023/08/23 03:00:41;;;;;;;10.60;9.15;;;;;;;24.55;72.62;98344.69;5030590;28;20186;-59
2023/08/23 03:03:07;;;;;;;11.13;9.57;;;;;;;24.62;72.54;98344.78;5030638;28;20178;-57
2023/08/23 03:05:32;;;;;;;9.23;8.43;;;;;;;24.65;70.84;98355.78;5031694;28;20193;-57
2023/08/23 03:07:57;;;;;;;9.68;8.73;;;;;;;24.64;70.81;98343.56;5032888;28;20264;-57
2023/08/23 03:10:23;;;;;;;9.63;8.73;;;;;;;24.66;71.82;98346.84;5032954;28;20213;-57
2023/08/23 03:12:48;;;;;;;11.40;8.90;;;;;;;24.64;71.88;98348.03;5033020;28;20260;-58
2023/08/23 03:15:14;;;;;;;10.13;9.15;;;;;;;24.56;72.67;98343.69;5032863;28;20232;-58
2023/08/23 03:17:39;;;;;;;11.00;9.63;;;;;;;24.50;72.57;98335.72;5032864;28;20269;-58
2023/08/23 03:20:05;;;;;;;9.40;8.50;;;;;;;24.62;72.90;98342.94;5030036;28;20769;-58
2023/08/23 03:22:31;;;;;;;10.02;9.05;;;;;;;24.60;72.73;98342.31;5010317;28;20212;-58
2023/08/23 03:24:56;;;;;;;9.68;8.80;;;;;;;24.59;73.42;98361.03;5010663;28;20182;-58
2023/08/23 03:27:22;;;;;;;10.63;9.40;;;;;;;24.43;73.59;98324.28;5010392;28;20267;-58
2023/08/23 03:29:47;;;;;;;11.35;9.68;;;;;;;24.52;74.10;98355.69;5010317;28;20569;-58
2023/08/23 03:32:14;;;;;;;9.98;8.93;;;;;;;24.43;72.98;98340.94;5010204;28;20186;-58
2023/08/23 03:34:39;;;;;;;10.07;9.05;;;;;;;24.19;74.38;98328.16;4951762;29;20539;-58
2023/08/23 03:37:06;;;;;;;10.15;9.13;;;;;;;24.10;74.52;98325.88;4913734;29;20200;-58
2023/08/23 03:39:31;;;;;;;9.98;8.98;;;;;;;24.14;74.08;98327.94;4913653;29;20222;-58
2023/08/23 03:41:56;;;;;;;9.13;8.32;;;;;;;24.15;73.52;98331.41;4913617;29;20645;-58
2023/08/23 03:44:22;;;;;;;9.68;8.77;;;;;;;24.19;73.95;98340.56;4913647;29;20280;-58
2023/08/23 03:46:47;;;;;;;9.32;8.50;;;;;;;24.17;73.26;98330.22;4913596;29;20558;-58
2023/08/23 03:49:13;;;;;;;10.60;9.27;;;;;;;24.26;72.30;98344.91;4913390;29;20194;-58
2023/08/23 03:51:38;;;;;;;11.20;9.30;;;;;;;24.36;73.45;98371.00;4927482;29;20668;-58
2023/08/23 03:54:04;;;;;;;10.60;9.52;;;;;;;24.29;73.93;98354.28;4946417;29;20271;-58
2023/08/23 03:56:29;;;;;;;11.65;10.20;;;;;;;24.16;73.66;98330.38;4951584;29;20644;-58
2023/08/23 03:58:56;;;;;;;11.25;10.07;;;;;;;24.25;73.87;98353.84;4951409;29;20315;-58
2023/08/23 04:01:21;;;;;;;10.38;9.43;;;;;;;24.25;73.77;98335.34;4951417;29;20231;-58
2023/08/23 04:03:47;;;;;;;11.00;9.75;;;;;;;24.19;74.08;98332.63;4951451;29;20212;-58
2023/08/23 04:06:12;;;;;;;11.32;9.77;;;;;;;24.19;73.66;98332.63;4994137;28;20213;-58
2023/08/23 04:08:37;;;;;;;9.95;8.85;;;;;;;24.22;73.96;98340.19;5009463;28;20210;-61
2023/08/23 04:11:03;;;;;;;10.23;9.10;;;;;;;24.21;74.12;98341.22;5009573;28;20223;-58
2023/08/23 04:13:28;;;;;;;10.73;8.95;;;;;;;24.30;73.80;98348.81;5011171;28;20257;-58
2023/08/23 04:15:54;;;;;;;10.32;8.48;;;;;;;24.37;73.06;98349.66;5030951;28;20574;-58
2023/08/23 04:18:19;;;;;;;9.05;8.35;;;;;;;24.45;71.23;98360.09;5031495;28;20253;-58
2023/08/23 04:20:44;;;;;;;13.85;9.15;;;;;;;24.35;71.14;98338.47;5028893;28;20280;-58
2023/08/23 04:23:10;;;;;;;10.52;8.65;;;;;;;24.44;70.99;98342.59;5029036;28;20729;-58
2023/08/23 04:25:35;;;;;;;10.90;9.13;;;;;;;24.46;71.22;98337.09;5029024;28;20225;-58
2023/08/23 04:28:01;;;;;;;9.90;8.85;;;;;;;24.55;70.92;98333.31;5028999;28;20726;-58
2023/08/23 04:30:26;;;;;;;10.48;9.43;;;;;;;24.78;71.04;98360.34;5028907;28;20706;-58
2023/08/23 04:32:51;;;;;;;10.10;9.20;;;;;;;24.76;71.11;98349.94;5048598;28;20204;-58
2023/08/23 04:35:17;;;;;;;10.50;9.23;;;;;;;24.81;70.23;98341.41;5048912;28;20189;-58
2023/08/23 04:37:42;;;;;;;11.27;9.57;;;;;;;24.84;70.26;98349.78;5048699;28;20806;-58
2023/08/23 04:40:08;;;;;;;10.05;8.95;;;;;;;24.80;70.50;98347.72;5048633;28;20602;-58
2023/08/23 04:42:34;;;;;;;10.27;9.07;;;;;;;24.95;68.80;98370.41;5048709;28;20193;-58
2023/08/23 04:45:00;;;;;;;10.18;9.18;;;;;;;24.96;69.23;98353.50;5048555;28;20185;-58
2023/08/23 04:47:27;;;;;;;12.18;9.20;;;;;;;25.07;68.64;98360.88;5048422;28;20725;-59
2023/08/23 04:49:52;;;;;;;10.45;9.07;;;;;;;24.88;69.23;98335.16;5048485;28;20596;-59
2023/08/23 04:52:18;;;;;;;9.35;8.43;;;;;;;25.04;69.11;98361.28;5048400;28;20188;-59
2023/08/23 04:54:43;;;;;;;10.75;8.88;;;;;;;25.02;68.81;98352.72;5048517;28;20640;-58
2023/08/23 04:57:09;;;;;;;10.98;9.98;;;;;;;25.01;69.06;98353.72;5048460;28;20177;-59
2023/08/23 04:59:34;;;;;;;10.38;9.32;;;;;;;25.08;69.25;98367.00;5048297;28;20216;-59
2023/08/23 05:01:59;;;;;;;11.27;10.18;;;;;;;24.91;69.14;98340.03;5048638;28;20275;-59
2023/08/23 05:04:25;;;;;;;13.57;11.05;;;;;;;25.04;69.21;98345.41;5035162;28;20190;-59
2023/08/23 05:06:50;;;;;;;9.70;8.90;;;;;;;25.05;68.55;98347.03;5047956;28;20181;-57
2023/08/23 05:09:16;;;;;;;10.85;9.75;;;;;;;25.16;67.81;98341.19;5048371;28;20196;-58
2023/08/23 05:11:41;;;;;;;9.40;8.60;;;;;;;25.25;67.70;98353.25;5048475;28;20268;-57
2023/08/23 05:14:07;;;;;;;10.02;8.45;;;;;;;25.30;67.47;98352.66;5048754;28;20187;-57
2023/08/23 05:16:32;;;;;;;11.30;9.63;;;;;;;25.30;67.58;98345.53;5048407;28;20702;-57
2023/08/23 05:18:57;;;;;;;11.38;10.18;;;;;;;25.27;67.64;98324.75;5048453;28;20202;-57
2023/08/23 05:21:23;;;;;;;10.23;9.25;;;;;;;25.38;66.84;98342.69;5048328;28;20185;-57
2023/08/23 05:23:50;;;;;;;10.45;9.43;;;;;;;25.50;66.05;98349.06;5048292;28;20181;-58
2023/08/23 05:26:16;;;;;;;10.95;9.85;;;;;;;25.63;65.95;98361.50;5048223;28;20185;-58
2023/08/23 05:28:41;;;;;;;9.75;8.93;;;;;;;25.66;65.53;98350.50;5051956;28;20177;-58
2023/08/23 05:31:07;;;;;;;11.30;8.60;;;;;;;25.65;65.26;98339.09;5052371;28;20180;-58
2023/08/23 05:33:32;;;;;;;9.73;8.77;;;;;;;25.77;64.95;98342.78;5052356;28;20765;-58
2023/08/23 05:35:58;;;;;;;9.75;8.95;;;;;;;25.90;64.27;98347.31;5052443;28;20177;-58
2023/08/23 05:38:23;;;;;;;11.82;8.60;;;;;;;25.85;63.90;98325.84;5037361;28;20219;-58
2023/08/23 05:40:50;;;;;;;10.55;8.85;;;;;;;25.93;63.34;98320.38;5032216;28;20182;-58
2023/08/23 05:43:17;;;;;;;11.25;9.40;;;;;;;26.11;63.02;98339.97;5032186;28;20193;-59
2023/08/23 05:45:45;;;;;;;9.70;8.90;;;;;;;26.24;62.93;98339.94;5032245;28;20178;-58
2023/08/23 05:48:11;;;;;;;10.00;9.15;;;;;;;26.32;62.80;98363.66;5032145;28;20193;-58
2023/08/23 05:50:36;;;;;;;9.85;8.82;;;;;;;26.29;62.45;98332.19;5032177;28;20243;-58
2023/08/23 05:53:09;;;;;;;9.43;8.52;;;;;;;26.25;61.99;98330.16;5032074;28;20190;-58
2023/08/23 05:55:35;;;;;;;11.60;9.18;;;;;;;26.50;61.79;98352.38;5032165;28;20178;-59
2023/08/23 05:58:01;;;;;;;9.65;8.77;;;;;;;26.58;61.11;98357.53;5031850;28;20190;-59
2023/08/23 06:00:26;;;;;;;15.05;9.63;;;;;;;26.51;61.10;98328.28;5031843;28;20746;-58
2023/08/23 06:02:51;;;;;;;10.63;9.55;;;;;;;26.51;60.83;98324.81;5031843;28;20276;-59
2023/08/23 06:05:17;;;;;;;9.68;8.88;;;;;;;26.62;60.31;98325.03;5031840;28;20174;-59
2023/08/23 06:07:42;;;;;;;10.02;9.00;;;;;;;26.98;59.53;98351.06;5011695;28;20422;-59
2023/08/23 06:10:09;;;;;;;10.45;8.48;;;;;;;27.00;58.89;98333.88;5028427;28;20225;-59
2023/08/23 06:12:35;;;;;;;10.30;8.90;;;;;;;27.24;58.78;98351.00;5031685;28;20186;-59
2023/08/23 06:15:00;;;;;;;9.98;8.98;;;;;;;27.24;58.50;98343.03;5031599;28;20572;-58
2023/08/23 06:17:26;;;;;;;9.40;8.50;;;;;;;27.29;57.50;98336.03;5031517;28;20190;-59
2023/08/23 06:19:51;;;;;;;9.00;8.13;;;;;;;27.24;57.54;98338.50;5031383;28;20205;-59
2023/08/23 06:22:17;;;;;;;9.43;8.48;;;;;;;27.49;56.84;98359.88;5031463;28;20194;-59
2023/08/23 06:25:26;;;;;;;11.00;8.05;;;;;;;27.68;56.14;98372.22;5031535;28;20186;-58
2023/08/23 06:27:51;;;;;;;12.18;8.77;;;;;;;27.53;56.01;98343.25;5031405;28;20194;-59
2023/08/23 06:30:17;;;;;;;11.05;8.27;;;;;;;27.61;56.03;98350.19;5031406;28;20255;-59
2023/08/23 06:32:46;;;;;;;9.57;8.25;;;;;;;27.78;55.51;98378.75;5031398;28;20573;-58
2023/08/23 06:35:16;;;;;;;9.77;8.85;;;;;;;27.65;55.45;98352.19;5031243;28;20576;-58
2023/08/23 06:37:42;;;;;;;10.02;8.60;;;;;;;27.93;55.34;98384.56;5031410;28;20178;-58
2023/08/23 06:40:10;;;;;;;10.10;8.27;;;;;;;27.81;55.16;98359.69;5032778;28;20206;-59
2023/08/23 06:42:35;;;;;;;10.88;8.45;;;;;;;27.99;55.07;98362.41;5033497;28;20174;-59
2023/08/23 06:45:02;;;;;;;8.68;8.02;;;;;;;28.05;54.87;98353.56;5033542;28;20170;-58
2023/08/23 06:47:27;;;;;;;10.05;8.23;;;;;;;28.24;54.11;98362.44;5033702;28;20193;-59
2023/08/23 06:49:52;;;;;;;8.93;8.13;;;;;;;28.49;52.83;98385.38;5033489;28;20182;-59
2023/08/23 06:52:18;;;;;;;10.10;7.85;;;;;;;28.46;52.21;98372.50;5033395;28;20563;-59
2023/08/23 06:54:43;;;;;;;9.70;8.68;;;;;;;28.54;52.48;98372.25;5033113;28;20216;-59
2023/08/23 06:57:09;;;;;;;9.38;8.50;;;;;;;28.76;52.02;98394.78;5033620;28;20174;-58
2023/08/23 06:59:34;;;;;;;13.02;9.02;;;;;;;28.76;52.76;98386.78;5033303;28;20206;-58
2023/08/23 07:01:59;;;;;;;13.05;9.07;;;;;;;28.90;52.84;98380.25;5033214;28;20670;-58
2023/08/23 07:04:25;;;;;;;20.50;15.35;;;;;;;29.07;52.71;98389.31;5033277;28;20170;-58
2023/08/23 07:06:50;;;;;;;17.77;10.70;;;;;;;29.30;52.22;98401.97;5033008;28;20554;-58
2023/08/23 07:09:16;;;;;;;13.35;10.45;;;;;;;29.17;52.46;98359.47;5033558;28;20182;-58
2023/08/23 07:11:41;;;;;;;17.60;10.07;;;;;;;29.35;51.41;98378.94;5033190;28;20554;-59
2023/08/23 07:14:08;;;;;;;18.60;9.85;;;;;;;29.45;51.05;98378.41;5032845;28;20652;-59
2023/08/23 07:16:34;;;;;;;14.70;9.65;;;;;;;29.58;51.29;98399.59;5032724;28;20659;-59
2023/08/23 07:19:02;;;;;;;16.55;9.75;;;;;;;29.66;50.72;98405.44;5032958;28;20297;-59
2023/08/23 07:21:29;;;;;;;15.27;9.68;;;;;;;29.67;50.40;98377.72;5033014;28;20173;-59
2023/08/23 07:23:54;;;;;;;16.95;9.80;;;;;;;29.67;50.75;98382.25;5032920;28;20239;-59
2023/08/23 07:26:19;;;;;;;11.13;9.10;;;;;;;29.67;50.44;98371.56;5010440;28;20186;-59
2023/08/23 07:28:45;;;;;;;17.13;10.00;;;;;;;29.69;50.05;98364.16;5010624;28;20224;-59
2023/08/23 07:31:10;;;;;;;14.85;9.82;;;;;;;29.86;50.15;98379.28;5010557;28;20632;-59
2023/08/23 07:33:36;;;;;;;15.35;10.05;;;;;;;29.91;49.61;98374.06;5010519;28;20174;-59
2023/08/23 07:36:01;;;;;;;16.23;9.73;;;;;;;29.88;49.82;98363.88;5010353;28;20193;-59
2023/08/23 07:38:28;;;;;;;13.10;9.68;;;;;;;30.13;49.23;98383.22;5010292;28;20194;-59
2023/08/23 07:40:58;;;;;;;17.10;10.65;;;;;;;30.10;48.84;98364.16;5029789;28;20284;-59
2023/08/23 07:43:24;;;;;;;16.92;10.27;;;;;;;30.20;48.56;98373.22;5029942;28;20217;-59
2023/08/23 07:45:57;;;;;;;18.50;10.40;;;;;;;30.17;48.64;98355.03;5030190;28;20197;-59
2023/08/23 07:48:23;;;;;;;15.50;10.25;;;;;;;30.32;48.21;98370.59;5029882;28;20173;-58
2023/08/23 07:50:53;;;;;;;15.38;10.52;;;;;;;30.36;48.09;98375.22;5028670;28;20277;-58
2023/08/23 07:53:18;;;;;;;17.92;9.57;;;;;;;30.45;48.03;98375.69;5029820;28;20240;-58
2023/08/23 07:55:44;;;;;;;15.90;9.70;;;;;;;30.51;47.37;98386.28;5029751;28;20730;-58
2023/08/23 07:58:11;;;;;;;11.90;9.40;;;;;;;30.50;47.36;98363.25;5046777;28;20185;-58
2023/08/23 08:00:36;;;;;;;13.32;8.77;;;;;;;30.60;47.96;98374.19;5049523;28;20308;-58
2023/08/23 08:03:03;;;;;;;11.68;9.02;;;;;;;30.77;47.39;98380.50;5049532;28;20698;-58
2023/08/23 08:05:29;;;;;;;14.70;9.02;;;;;;;30.75;46.71;98361.22;5049418;28;20211;-58
2023/08/23 08:07:55;;;;;;;13.20;9.50;;;;;;;30.89;46.46;98369.81;5049493;28;20192;-58
2023/08/23 08:10:20;;;;;;;12.02;9.40;;;;;;;30.83;46.29;98349.34;5049480;28;20181;-59
2023/08/23 08:12:46;;;;;;;14.57;9.38;;;;;;;30.98;46.54;98363.84;5033836;28;20251;-58
2023/08/23 08:15:11;;;;;;;9.98;9.02;;;;;;;31.11;46.38;98376.94;5031836;28;20178;-58
2023/08/23 08:17:37;;;;;;;14.52;9.05;;;;;;;31.00;44.45;98366.25;5048957;28;20196;-58
2023/08/23 08:20:08;;;;;;;13.65;8.77;;;;;;;31.06;45.16;98358.13;5049117;28;20219;-58
2023/08/23 08:22:34;;;;;;;12.40;7.85;;;;;;;31.10;43.62;98342.44;5049211;28;20189;-58
2023/08/23 08:24:59;;;;;;;8.63;7.80;;;;;;;31.09;43.10;98346.16;5049208;28;20207;-58
2023/08/23 08:27:24;;;;;;;9.18;7.03;;;;;;;31.22;43.13;98352.09;5049003;28;20635;-58
2023/08/23 08:29:50;;;;;;;14.07;7.85;;;;;;;31.35;43.09;98349.13;5049008;28;20185;-58
2023/08/23 08:32:15;;;;;;;10.52;7.82;;;;;;;31.46;43.28;98367.00;5048994;28;20261;-58
2023/08/23 08:34:41;;;;;;;10.40;7.35;;;;;;;31.49;43.40;98371.84;5048882;28;20188;-58
2023/08/23 08:37:06;;;;;;;9.90;7.25;;;;;;;31.58;42.72;98370.44;5028793;28;20181;-58
2023/08/23 08:39:32;;;;;;;7.88;6.43;;;;;;;31.59;42.38;98364.03;5029103;28;20770;-58
2023/08/23 08:41:59;;;;;;;9.00;6.75;;;;;;;31.62;40.54;98368.91;5028826;28;20811;-58
2023/08/23 08:44:25;;;;;;;8.20;5.53;;;;;;;31.46;40.60;98350.13;5028906;28;20213;-58
2023/08/23 08:46:51;;;;;;;13.73;6.68;;;;;;;31.55;41.04;98351.38;5028814;28;20678;-58
2023/08/23 08:49:16;;;;;;;10.55;7.20;;;;;;;31.64;41.18;98355.28;5028752;28;20206;-58
2023/08/23 08:51:45;;;;;;;8.07;6.70;;;;;;;31.69;40.51;98342.81;5028728;28;20702;-58
2023/08/23 08:54:14;;;;;;;7.35;6.45;;;;;;;31.90;40.14;98357.38;5028794;28;20186;-58
2023/08/23 08:56:42;;;;;;;9.60;6.57;;;;;;;31.81;40.53;98332.06;5028707;28;20281;-58
2023/08/23 08:59:07;;;;;;;12.75;7.15;;;;;;;31.91;40.12;98356.34;5008633;28;20609;-58
2023/08/23 09:01:35;;;;;;;11.82;7.60;;;;;;;31.85;39.91;98326.00;4969325;28;20188;-58
2023/08/23 09:04:01;;;;;;;10.75;6.57;;;;;;;32.05;40.20;98350.41;4969906;28;20732;-58
2023/08/23 09:06:27;;;;;;;9.27;6.53;;;;;;;31.95;39.93;98325.34;4969837;28;20287;-58
2023/08/23 09:08:54;;;;;;;7.93;6.68;;;;;;;32.12;39.77;98337.69;4985699;28;20210;-59
2023/08/23 09:11:19;;;;;;;9.85;6.53;;;;;;;32.00;39.40;98315.53;4989261;28;20183;-59
2023/08/23 09:13:45;;;;;;;14.18;6.95;;;;;;;32.23;39.91;98344.81;4989204;28;20206;-58
2023/08/23 09:16:13;;;;;;;6.70;6.20;;;;;;;32.32;39.86;98342.56;4989289;28;20584;-59
2023/08/23 09:18:45;;;;;;;7.03;6.43;;;;;;;32.33;38.69;98331.63;4989046;28;20211;-59
2023/08/23 09:21:13;;;;;;;10.65;6.80;;;;;;;32.29;38.89;98314.41;4989134;28;20187;-59
2023/08/23 09:23:39;;;;;;;8.27;7.10;;;;;;;32.28;38.95;98304.75;4989001;28;20194;-60
2023/08/23 09:26:07;;;;;;;9.60;7.70;;;;;;;32.45;38.94;98337.69;4988996;28;20572;-57
2023/08/23 09:28:33;;;;;;;9.95;6.53;;;;;;;32.51;39.02;98326.00;4989085;28;20854;-58
2023/08/23 09:30:59;;;;;;;9.82;6.60;;;;;;;32.46;39.12;98295.66;5005820;28;20183;-58
2023/08/23 09:33:24;;;;;;;8.85;6.65;;;;;;;32.69;39.30;98320.34;5027529;28;20189;-57
2023/08/23 09:35:50;;;;;;;7.60;6.10;;;;;;;32.69;38.78;98306.94;5030696;28;20177;-58
2023/08/23 09:38:22;;;;;;;10.30;6.40;;;;;;;32.68;38.32;98309.88;5030592;28;20186;-58
2023/08/23 09:40:48;;;;;;;9.40;6.28;;;;;;;32.69;38.22;98295.44;5030701;28;20174;-58
2023/08/23 09:43:17;;;;;;;6.68;5.85;;;;;;;32.92;37.35;98324.69;5030733;28;20178;-58
2023/08/23 09:45:44;;;;;;;6.50;5.95;;;;;;;32.77;37.05;98303.84;5047886;28;20573;-58
2023/08/23 09:48:11;;;;;;;10.15;6.47;;;;;;;33.01;37.34;98320.53;5048038;28;20687;-58
2023/08/23 09:50:36;;;;;;;6.85;6.25;;;;;;;32.98;37.46;98303.06;5048143;28;20343;-58
2023/08/23 09:53:06;;;;;;;8.75;6.00;;;;;;;33.18;37.23;98316.72;5048094;28;20264;-58
2023/08/23 09:55:34;;;;;;;9.98;5.13;;;;;;;33.11;36.48;98294.63;5048062;28;20185;-58
2023/08/23 09:58:00;;;;;;;8.57;5.80;;;;;;;33.24;35.87;98288.06;5048040;28;20184;-58
2023/08/23 10:00:27;;;;;;;6.63;6.00;;;;;;;33.18;36.21;98284.53;5047821;28;20241;-59
2023/08/23 10:02:56;;;;;;;8.77;5.70;;;;;;;33.27;35.53;98296.44;5047952;28;20664;-59
2023/08/23 10:05:22;;;;;;;6.20;5.60;;;;;;;33.33;36.04;98292.75;5047849;28;20204;-59
2023/08/23 10:07:48;;;;;;;8.27;5.82;;;;;;;33.54;35.96;98305.34;5047754;28;20189;-59
2023/08/23 10:10:14;;;;;;;7.28;5.80;;;;;;;33.28;35.34;98284.66;5047815;28;20185;-59
2023/08/23 10:12:42;;;;;;;9.43;5.57;;;;;;;33.50;35.04;98293.47;5047827;28;20282;-59
2023/08/23 10:15:11;;;;;;;6.05;5.55;;;;;;;33.50;34.49;98279.22;5050278;28;20208;-59
2023/08/23 10:17:38;;;;;;;7.70;5.30;;;;;;;33.74;34.44;98300.13;5035612;28;20193;-59
2023/08/23 10:20:14;;;;;;;8.30;5.78;;;;;;;33.83;34.40;98298.66;5033868;28;20743;-59
2023/08/23 10:22:40;;;;;;;6.30;5.70;;;;;;;33.83;33.86;98279.84;5033994;28;20173;-59
2023/08/23 10:25:20;;;;;;;6.32;5.70;;;;;;;34.09;33.84;98297.78;5033692;28;20664;-59
2023/08/23 10:27:47;;;;;;;6.43;5.63;;;;;;;34.23;33.81;98292.78;5034014;28;20169;-59
2023/08/23 10:30:22;;;;;;;7.97;5.95;;;;;;;34.27;33.35;98293.91;5034130;28;20252;-60
2023/08/23 10:32:48;;;;;;;6.03;5.53;;;;;;;34.22;33.49;98291.94;5033879;28;20173;-59
2023/08/23 10:35:31;;;;;;;7.45;5.47;;;;;;;34.18;32.50;98295.41;5033770;28;20185;-59
2023/08/23 10:37:57;;;;;;;6.57;5.32;;;;;;;34.38;33.06;98299.09;5033739;28;20859;-59
2023/08/23 10:40:28;;;;;;;8.25;5.60;;;;;;;34.46;31.97;98304.00;5033309;28;20197;-59
2023/08/23 10:42:53;;;;;;;7.03;5.75;;;;;;;34.55;31.52;98302.41;5033673;28;20231;-59
2023/08/23 10:45:19;;;;;;;6.00;5.45;;;;;;;34.64;31.44;98289.28;5033821;28;20273;-60
2023/08/23 10:47:49;;;;;;;7.10;4.78;;;;;;;34.80;30.96;98291.81;5033494;28;20180;-59
2023/08/23 10:50:15;;;;;;;8.43;5.25;;;;;;;34.87;31.63;98260.13;5030741;28;20201;-59
2023/08/23 10:52:40;;;;;;;8.15;5.60;;;;;;;35.11;31.15;98290.03;5030962;28;20189;-57
2023/08/23 10:55:06;;;;;;;5.97;5.38;;;;;;;35.22;31.45;98297.09;5030841;28;20182;-58
2023/08/23 10:57:32;;;;;;;7.63;6.15;;;;;;;35.10;30.41;98272.28;5030782;28;20180;-58
2023/08/23 10:59:57;;;;;;;6.95;5.65;;;;;;;35.27;30.56;98289.84;5030806;28;20250;-57
2023/08/23 11:02:23;;;;;;;8.52;6.15;;;;;;;35.44;30.11;98279.66;5030772;28;20570;-58
2023/08/23 11:04:48;;;;;;;6.75;5.82;;;;;;;35.51;30.39;98279.41;5030808;28;20212;-58
2023/08/23 11:07:14;;;;;;;6.45;5.57;;;;;;;35.40;29.93;98267.81;5030544;28;20205;-58
2023/08/23 11:09:40;;;;;;;8.35;5.80;;;;;;;35.58;30.01;98264.63;5030756;28;20619;-58
2023/08/23 11:12:07;;;;;;;5.55;5.05;;;;;;;35.65;30.32;98259.78;5030588;28;20216;-58
2023/08/23 11:14:32;;;;;;;8.55;5.25;;;;;;;35.56;29.46;98261.38;5030592;28;20189;-58
2023/08/23 11:16:58;;;;;;;5.80;5.25;;;;;;;35.63;29.04;98245.78;5050198;28;20186;-58
2023/08/23 11:19:23;;;;;;;6.70;5.72;;;;;;;35.91;28.59;98277.56;5050351;28;20703;-58
2023/08/23 11:21:49;;;;;;;5.38;4.90;;;;;;;35.94;28.47;98243.88;5050298;28;20741;-59
2023/08/23 11:24:14;;;;;;;6.28;5.65;;;;;;;36.17;27.68;98265.72;5050330;28;20745;-59
2023/08/23 11:26:40;;;;;;;5.63;5.10;;;;;;;36.36;28.13;98264.06;5049973;28;20311;-59